»·PEaware :: N522PM KPSP-KCRQ

N522PM :: KPSP-KCRQ

FLIGHT INFORMATION

Flight Status: Arrived
Operator: Privately registered:
United States
More flights under this callsign
Pilot: Bruce B. (6887)
Aircraft: BEECH AIRCRAFT BONANZA
(BE36)
More flights by this aircraft type
Origin: KPSP Palm Springs Intl
United States
Destination: KCRQ McClellan-Palomar
United States
More flights between these airports :: More routes between these airports
Route: +DIRECT
File this flight plan on PilotEdge
Remarks:
Altitude:
(Current/Filed)
8,500ft
Speed:
(Current/Filed)
160kts
Departed: 12-Dec-17 05:21 PM
Arrived: 12-Dec-17 06:00 PM
Distance/Time
Traveled:
57nm/0:39
Distance/Time
To Go:
Arrived

Flight Plot

Page will automatically refresh every two minutes.

Flight plan parsing failed; only flown route is shown


Map Options




Map Legend


Flown Route
Filed Route
Departure Airport
Arrival Airport
Navaid (VOR, NDB)
Fix

Horizontal Profiles

Position Reports

Time Latitude Longitude Heading Altitude Ground
Speed
12-Dec-17 17:16 33.823074 -116.498072 53 481ft 0kts
12-Dec-17 17:17 33.823074 -116.498072 53 481ft 0kts
12-Dec-17 17:18 33.823074 -116.498072 53 481ft 0kts
12-Dec-17 17:19 33.823074 -116.498072 53 481ft 0kts
12-Dec-17 17:20 33.823074 -116.498072 53 481ft 0kts
12-Dec-17 17:21 33.823074 -116.498072 53 481ft 0kts
12-Dec-17 17:22 33.825191 -116.499761 319 481ft 22kts
12-Dec-17 17:23 33.828946 -116.503214 323 481ft 14kts
12-Dec-17 17:24 33.832839 -116.506660 323 481ft 19kts
12-Dec-17 17:25 33.835346 -116.509088 236 481ft 0kts
12-Dec-17 17:26 33.835346 -116.509089 236 481ft 0kts
12-Dec-17 17:27 33.828954 -116.504195 142 525ft 94kts
12-Dec-17 17:28 33.805339 -116.483282 143 1786ft 109kts
12-Dec-17 17:29 33.780486 -116.462709 142 2998ft 120kts
12-Dec-17 17:30 33.753665 -116.438299 136 4153ft 121kts
12-Dec-17 17:31 33.728226 -116.413209 136 5206ft 125kts
12-Dec-17 17:32 33.700132 -116.385769 139 5954ft 134kts
12-Dec-17 17:33 33.669820 -116.358463 138 6663ft 136kts
12-Dec-17 17:34 33.639419 -116.331724 138 7353ft 134kts
12-Dec-17 17:35 33.609444 -116.306007 138 8037ft 129kts
12-Dec-17 17:36 33.579915 -116.281333 138 8488ft 136kts
12-Dec-17 17:37 33.546380 -116.253151 139 8479ft 154kts
12-Dec-17 17:38 33.510367 -116.223534 139 8461ft 157kts
12-Dec-17 17:39 33.474362 -116.193791 139 8468ft 156kts
12-Dec-17 17:40 33.438695 -116.164056 139 8463ft 156kts
12-Dec-17 17:41 33.401796 -116.137371 174 8449ft 162kts
12-Dec-17 17:42 33.367319 -116.167094 243 8471ft 165kts
12-Dec-17 17:43 33.349943 -116.217808 254 8474ft 165kts
12-Dec-17 17:44 33.338393 -116.270716 260 8469ft 164kts
12-Dec-17 17:45 33.328067 -116.324129 259 8471ft 164kts
12-Dec-17 17:46 33.317220 -116.377238 258 8475ft 164kts
12-Dec-17 17:47 33.306258 -116.430526 258 8479ft 164kts
12-Dec-17 17:48 33.295303 -116.483700 258 8480ft 165kts
12-Dec-17 17:49 33.284319 -116.536938 257 8468ft 164kts
12-Dec-17 17:50 33.273077 -116.589977 256 8461ft 164kts
12-Dec-17 17:51 33.261340 -116.642597 256 8468ft 163kts
12-Dec-17 17:52 33.249508 -116.695262 256 7832ft 165kts
12-Dec-17 17:53 33.237524 -116.748162 256 7204ft 162kts
12-Dec-17 17:54 33.223505 -116.797960 257 6739ft 155kts
12-Dec-17 17:55 33.210540 -116.848798 254 5990ft 162kts
12-Dec-17 17:56 33.201875 -116.900790 259 5283ft 161kts
12-Dec-17 17:56 33.194015 -116.942816 259 4842ft 141kts
12-Dec-17 17:58 33.182498 -116.998946 257 4022ft 155kts
12-Dec-17 17:59 33.171731 -117.046954 255 3774ft 146kts
12-Dec-17 17:59 33.163455 -117.086554 257 3681ft 150kts
12-Dec-17 18:00 33.154467 -117.135961 261 3490ft 151kts
12-Dec-17 18:02 33.143484 -117.187678 261 2816ft 100kts
12-Dec-17 18:02 33.138913 -117.214706 255 2150ft 103kts
12-Dec-17 18:03 33.133665 -117.245821 258 1043ft 83kts
12-Dec-17 18:04 33.129333 -117.273026 258 366ft 75kts
12-Dec-17 18:05 33.127241 -117.282730 221 335ft 7kts
12-Dec-17 18:06 33.126190 -117.283032 165 335ft 0kts
12-Dec-17 18:07 33.126190 -117.283032 165 335ft 0kts

Navigation Log

Ident Type
Flight plan parsing failed, navigation log unavailable